EZY984Q EGJJ-EGPH
Flight info
| Callsign | EZY984Q |
|---|---|
| Flight time | 1h 18m |
| Altitude | 24000 |
| Route | SKERY L22 EMWIP P16 FIMCA/N0446F370 DCT BHD DCT WIGGU DCT AZCAL DCT AVTIC DCT ANJAK/N0450F360 N38 NOKIN UP16 RIBEL DCT INPIP |
| Aircraft | A320/M-SDE3FGHIRWY/LB1 |
Departure
| Time | 2026-04-21 17:46 |
|---|---|
| Airport | Jersey Airport (EGJJ) |
Arrival
| Time | 2026-04-21 19:05 |
|---|---|
| Airport | Edinburgh Airport (EGPH) |
| Time | Latitude | Longitude | Altitude | Speed | Heading |
|---|---|---|---|---|---|
| 2026-04-21 16:50 | 49.20547 | -2.19805 | 280 ft | 0 kts | 175° |
| 2026-04-21 17:36 | 49.20555 | -2.19806 | 284 ft | 3 kts | 176° |
| 2026-04-21 17:37 | 49.20575 | -2.19806 | 285 ft | 3 kts | 187° |
| 2026-04-21 17:37 | 49.20594 | -2.19800 | 285 ft | 3 kts | 208° |
| 2026-04-21 17:37 | 49.20605 | -2.19790 | 285 ft | 3 kts | 233° |
| 2026-04-21 17:37 | 49.20611 | -2.19773 | 283 ft | 0 kts | 264° |
| 2026-04-21 17:41 | 49.20611 | -2.19774 | 283 ft | 1 kts | 264° |
| 2026-04-21 17:42 | 49.20606 | -2.19836 | 284 ft | 7 kts | 264° |
| 2026-04-21 17:42 | 49.20599 | -2.19900 | 280 ft | 5 kts | 247° |
| 2026-04-21 17:42 | 49.20561 | -2.19924 | 280 ft | 7 kts | 184° |
| 2026-04-21 17:42 | 49.20525 | -2.19952 | 280 ft | 5 kts | 231° |
| 2026-04-21 17:43 | 49.20518 | -2.19997 | 280 ft | 4 kts | 279° |
| 2026-04-21 17:43 | 49.20530 | -2.20059 | 280 ft | 11 kts | 286° |
| 2026-04-21 17:43 | 49.20552 | -2.20166 | 285 ft | 9 kts | 288° |
| 2026-04-21 17:43 | 49.20570 | -2.20258 | 282 ft | 9 kts | 286° |
| 2026-04-21 17:44 | 49.20595 | -2.20387 | 283 ft | 13 kts | 286° |
| 2026-04-21 17:44 | 49.20620 | -2.20527 | 283 ft | 14 kts | 281° |
| 2026-04-21 17:44 | 49.20632 | -2.20665 | 280 ft | 13 kts | 290° |
| 2026-04-21 17:44 | 49.20702 | -2.20692 | 280 ft | 9 kts | 50° |
| 2026-04-21 17:45 | 49.20707 | -2.20659 | 280 ft | 0 kts | 82° |
| 2026-04-21 17:45 | 49.20712 | -2.20598 | 280 ft | 30 kts | 83° |
| 2026-04-21 17:45 | 49.20779 | -2.19804 | 288 ft | 117 kts | 82° |
| 2026-04-21 17:46 | 49.20908 | -2.18254 | 485 ft | 165 kts | 83° |
| 2026-04-21 17:46 | 49.21053 | -2.16424 | 1111 ft | 184 kts | 83° |
| 2026-04-21 17:46 | 49.21218 | -2.14373 | 1501 ft | 207 kts | 83° |
| 2026-04-21 17:46 | 49.21472 | -2.12085 | 1898 ft | 231 kts | 72° |
| 2026-04-21 17:47 | 49.22232 | -2.09828 | 2363 ft | 254 kts | 51° |
| 2026-04-21 17:47 | 49.23580 | -2.08039 | 3144 ft | 261 kts | 29° |
| 2026-04-21 17:47 | 49.25298 | -2.07114 | 4052 ft | 265 kts | 7° |
| 2026-04-21 17:47 | 49.27138 | -2.07256 | 4953 ft | 268 kts | 344° |
| 2026-04-21 17:48 | 49.28284 | -2.07954 | 5549 ft | 269 kts | 329° |
| 2026-04-21 17:48 | 49.30051 | -2.10644 | 6714 ft | 273 kts | 298° |
| 2026-04-21 17:48 | 49.30770 | -2.13355 | 7583 ft | 276 kts | 290° |
| 2026-04-21 17:48 | 49.31522 | -2.16082 | 8436 ft | 280 kts | 295° |
| 2026-04-21 17:49 | 49.32431 | -2.18687 | 9249 ft | 283 kts | 301° |
| 2026-04-21 17:49 | 49.33533 | -2.21210 | 10081 ft | 287 kts | 307° |
| 2026-04-21 17:49 | 49.34810 | -2.23591 | 10863 ft | 291 kts | 312° |
| 2026-04-21 17:49 | 49.36242 | -2.25799 | 11639 ft | 294 kts | 317° |
| 2026-04-21 17:50 | 49.37811 | -2.27916 | 12100 ft | 311 kts | 319° |
| 2026-04-21 17:50 | 49.39499 | -2.30187 | 12299 ft | 334 kts | 318° |
| 2026-04-21 17:50 | 49.41301 | -2.32613 | 12539 ft | 353 kts | 319° |
| 2026-04-21 17:50 | 49.43150 | -2.35093 | 13453 ft | 345 kts | 319° |
| 2026-04-21 17:51 | 49.44886 | -2.37412 | 14827 ft | 325 kts | 319° |
| 2026-04-21 17:51 | 49.46539 | -2.39615 | 16174 ft | 304 kts | 318° |
| 2026-04-21 17:51 | 49.48062 | -2.41711 | 17432 ft | 286 kts | 317° |
| 2026-04-21 17:51 | 49.49508 | -2.43770 | 18240 ft | 282 kts | 316° |
| 2026-04-21 17:52 | 49.50941 | -2.45844 | 18875 ft | 284 kts | 316° |
| 2026-04-21 17:52 | 49.52380 | -2.47931 | 19466 ft | 286 kts | 316° |
| 2026-04-21 17:52 | 49.53836 | -2.50042 | 20042 ft | 288 kts | 316° |
| 2026-04-21 17:52 | 49.55286 | -2.52141 | 20589 ft | 291 kts | 316° |
| 2026-04-21 17:53 | 49.56766 | -2.54282 | 21124 ft | 294 kts | 316° |
| 2026-04-21 17:53 | 49.58268 | -2.56451 | 21642 ft | 297 kts | 316° |
| 2026-04-21 17:53 | 49.59783 | -2.58640 | 22157 ft | 300 kts | 316° |
| 2026-04-21 17:53 | 49.61315 | -2.60852 | 22672 ft | 303 kts | 316° |
| 2026-04-21 17:54 | 49.62864 | -2.63087 | 23151 ft | 306 kts | 316° |
| 2026-04-21 17:54 | 49.64445 | -2.65369 | 23449 ft | 317 kts | 316° |
| 2026-04-21 17:54 | 49.66080 | -2.67730 | 23701 ft | 328 kts | 316° |
| 2026-04-21 17:54 | 49.67772 | -2.70174 | 23920 ft | 339 kts | 316° |
| 2026-04-21 17:55 | 49.69510 | -2.72691 | 24008 ft | 355 kts | 316° |
| 2026-04-21 17:55 | 49.71343 | -2.75351 | 24128 ft | 368 kts | 316° |
| 2026-04-21 17:55 | 49.73240 | -2.78113 | 24259 ft | 381 kts | 316° |
| 2026-04-21 17:55 | 49.75198 | -2.80963 | 24387 ft | 393 kts | 316° |
| 2026-04-21 17:56 | 49.77224 | -2.83908 | 24515 ft | 404 kts | 316° |
| 2026-04-21 17:56 | 49.79298 | -2.86923 | 24641 ft | 415 kts | 316° |
| 2026-04-21 17:56 | 49.81425 | -2.90018 | 24779 ft | 424 kts | 316° |
| 2026-04-21 17:56 | 49.83595 | -2.93185 | 24891 ft | 433 kts | 316° |
| 2026-04-21 17:57 | 49.85777 | -2.96380 | 25016 ft | 441 kts | 316° |
| 2026-04-21 17:57 | 49.88026 | -2.99675 | 25142 ft | 449 kts | 316° |
| 2026-04-21 17:57 | 49.90313 | -3.03031 | 25264 ft | 456 kts | 316° |
| 2026-04-21 17:57 | 49.92629 | -3.06433 | 25394 ft | 462 kts | 316° |
| 2026-04-21 17:58 | 49.94976 | -3.09883 | 25523 ft | 467 kts | 316° |
| 2026-04-21 17:58 | 49.97348 | -3.13375 | 25770 ft | 470 kts | 316° |
| 2026-04-21 17:58 | 49.99593 | -3.16946 | 26740 ft | 452 kts | 309° |
| 2026-04-21 17:58 | 50.01351 | -3.20852 | 27877 ft | 433 kts | 300° |
| 2026-04-21 17:59 | 50.02840 | -3.24806 | 29040 ft | 414 kts | 300° |
| 2026-04-21 17:59 | 50.04408 | -3.28358 | 30156 ft | 394 kts | 309° |
| 2026-04-21 17:59 | 50.06241 | -3.31384 | 31208 ft | 377 kts | 317° |
| 2026-04-21 17:59 | 50.08300 | -3.33963 | 31409 ft | 385 kts | 326° |
| 2026-04-21 18:00 | 50.10649 | -3.36045 | 31539 ft | 392 kts | 333° |
| 2026-04-21 18:00 | 50.13107 | -3.37989 | 31657 ft | 400 kts | 333° |
| 2026-04-21 18:00 | 50.15603 | -3.39981 | 31799 ft | 407 kts | 333° |
| 2026-04-21 18:00 | 50.18142 | -3.42018 | 31911 ft | 414 kts | 332° |
| 2026-04-21 18:01 | 50.20724 | -3.44101 | 32048 ft | 421 kts | 332° |
| 2026-04-21 18:01 | 50.23340 | -3.46220 | 32175 ft | 427 kts | 332° |
| 2026-04-21 18:01 | 50.26026 | -3.48113 | 32301 ft | 433 kts | 340° |
| 2026-04-21 18:01 | 50.28955 | -3.49338 | 32426 ft | 439 kts | 350° |
| 2026-04-21 18:02 | 50.32011 | -3.49786 | 32553 ft | 444 kts | 360° |
| 2026-04-21 18:02 | 50.35115 | -3.49631 | 32681 ft | 449 kts | 2° |
| 2026-04-21 18:02 | 50.38193 | -3.49450 | 33489 ft | 433 kts | 2° |
| 2026-04-21 18:02 | 50.41128 | -3.49228 | 34586 ft | 413 kts | 4° |
| 2026-04-21 18:03 | 50.43945 | -3.48837 | 35314 ft | 403 kts | 6° |
| 2026-04-21 18:03 | 50.46721 | -3.48312 | 35670 ft | 401 kts | 7° |
| 2026-04-21 18:03 | 50.49444 | -3.47725 | 35920 ft | 401 kts | 8° |
| 2026-04-21 18:03 | 50.52212 | -3.47112 | 36143 ft | 402 kts | 7° |
| 2026-04-21 18:04 | 50.54985 | -3.46515 | 36334 ft | 404 kts | 7° |
| 2026-04-21 18:04 | 50.57782 | -3.45946 | 36496 ft | 406 kts | 7° |
| 2026-04-21 18:04 | 50.60582 | -3.45404 | 36738 ft | 405 kts | 6° |
| 2026-04-21 18:04 | 50.63382 | -3.44877 | 36941 ft | 406 kts | 6° |
| 2026-04-21 18:05 | 50.69061 | -3.43818 | 37010 ft | 417 kts | 6° |
| 2026-04-21 18:05 | 50.74859 | -3.42731 | 37010 ft | 428 kts | 6° |
| 2026-04-21 18:06 | 50.80852 | -3.41582 | 37010 ft | 439 kts | 7° |
| 2026-04-21 18:06 | 50.86983 | -3.40399 | 37010 ft | 449 kts | 7° |
| 2026-04-21 18:07 | 50.93210 | -3.39193 | 37009 ft | 452 kts | 7° |
| 2026-04-21 18:07 | 50.99411 | -3.37985 | 37009 ft | 453 kts | 7° |
| 2026-04-21 18:08 | 51.05668 | -3.36773 | 37009 ft | 453 kts | 7° |
| 2026-04-21 18:08 | 51.11928 | -3.35550 | 37012 ft | 453 kts | 7° |
| 2026-04-21 18:09 | 51.18190 | -3.34329 | 37022 ft | 454 kts | 7° |
| 2026-04-21 18:09 | 51.24456 | -3.33091 | 37027 ft | 453 kts | 7° |
| 2026-04-21 18:10 | 51.30668 | -3.31833 | 37029 ft | 453 kts | 7° |
| 2026-04-21 18:10 | 51.36916 | -3.30560 | 37029 ft | 453 kts | 7° |
| 2026-04-21 18:11 | 51.43172 | -3.29283 | 37028 ft | 453 kts | 7° |
| 2026-04-21 18:11 | 51.49426 | -3.28002 | 37027 ft | 453 kts | 7° |
| 2026-04-21 18:12 | 51.55639 | -3.26742 | 37027 ft | 453 kts | 7° |
| 2026-04-21 18:12 | 51.61896 | -3.25468 | 37023 ft | 453 kts | 7° |
| 2026-04-21 18:13 | 51.68152 | -3.24191 | 37023 ft | 454 kts | 7° |
| 2026-04-21 18:13 | 51.74417 | -3.22902 | 37022 ft | 454 kts | 7° |
| 2026-04-21 18:14 | 51.83784 | -3.20955 | 37021 ft | 455 kts | 7° |
| 2026-04-21 18:15 | 51.90062 | -3.19665 | 37027 ft | 455 kts | 6° |
| 2026-04-21 18:15 | 51.96366 | -3.18850 | 37027 ft | 454 kts | 2° |
| 2026-04-21 18:16 | 52.02684 | -3.18511 | 37027 ft | 454 kts | 1° |
| 2026-04-21 18:16 | 52.09003 | -3.18172 | 37029 ft | 454 kts | 2° |
| 2026-04-21 18:17 | 52.15276 | -3.17718 | 37026 ft | 454 kts | 2° |
| 2026-04-21 18:17 | 52.21589 | -3.17208 | 37024 ft | 455 kts | 2° |
| 2026-04-21 18:18 | 52.27911 | -3.16708 | 37022 ft | 455 kts | 2° |
| 2026-04-21 18:18 | 52.34234 | -3.16216 | 37026 ft | 455 kts | 2° |
| 2026-04-21 18:19 | 52.40517 | -3.15724 | 37028 ft | 455 kts | 2° |
| 2026-04-21 18:19 | 52.46838 | -3.15233 | 37027 ft | 455 kts | 2° |
| 2026-04-21 18:20 | 52.53165 | -3.14744 | 37028 ft | 455 kts | 2° |
| 2026-04-21 18:20 | 52.59484 | -3.14248 | 37031 ft | 454 kts | 2° |
| 2026-04-21 18:21 | 52.65798 | -3.13746 | 37031 ft | 454 kts | 2° |
| 2026-04-21 18:21 | 52.72011 | -3.12518 | 37036 ft | 454 kts | 15° |
| 2026-04-21 18:22 | 52.77840 | -3.08576 | 37027 ft | 453 kts | 25° |
| 2026-04-21 18:22 | 52.83541 | -3.04114 | 37025 ft | 454 kts | 25° |
| 2026-04-21 18:23 | 52.89245 | -2.99646 | 37024 ft | 454 kts | 24° |
| 2026-04-21 18:23 | 52.95108 | -2.95981 | 37027 ft | 453 kts | 20° |
| 2026-04-21 18:24 | 53.01030 | -2.92362 | 37025 ft | 453 kts | 20° |
| 2026-04-21 18:24 | 53.06947 | -2.88727 | 37026 ft | 453 kts | 20° |
| 2026-04-21 18:25 | 53.12861 | -2.85089 | 37029 ft | 453 kts | 20° |
| 2026-04-21 18:25 | 53.18764 | -2.81438 | 37027 ft | 453 kts | 20° |
| 2026-04-21 18:26 | 53.24639 | -2.77792 | 37025 ft | 453 kts | 20° |
| 2026-04-21 18:26 | 53.30548 | -2.74103 | 37025 ft | 453 kts | 20° |
| 2026-04-21 18:27 | 53.36457 | -2.70402 | 37025 ft | 453 kts | 20° |
| 2026-04-21 18:27 | 53.42361 | -2.66691 | 37025 ft | 453 kts | 20° |
| 2026-04-21 18:28 | 53.48265 | -2.62987 | 37027 ft | 453 kts | 20° |
| 2026-04-21 18:28 | 53.54130 | -2.59301 | 37024 ft | 453 kts | 20° |
| 2026-04-21 18:29 | 53.60034 | -2.55577 | 37023 ft | 453 kts | 20° |
| 2026-04-21 18:29 | 53.65940 | -2.51834 | 37018 ft | 454 kts | 20° |
| 2026-04-21 18:30 | 53.71853 | -2.48076 | 37019 ft | 454 kts | 20° |
| 2026-04-21 18:30 | 53.77727 | -2.44334 | 37023 ft | 454 kts | 20° |
| 2026-04-21 18:31 | 53.83641 | -2.40555 | 37027 ft | 454 kts | 20° |
| 2026-04-21 18:31 | 53.89547 | -2.36756 | 36866 ft | 454 kts | 20° |
| 2026-04-21 18:31 | 53.92495 | -2.34854 | 36617 ft | 453 kts | 20° |
| 2026-04-21 18:32 | 53.94443 | -2.33596 | 36451 ft | 452 kts | 20° |
| 2026-04-21 18:32 | 53.98443 | -2.31668 | 36121 ft | 452 kts | 8° |
| 2026-04-21 18:32 | 54.01566 | -2.31265 | 35873 ft | 451 kts | 358° |
| 2026-04-21 18:32 | 54.04691 | -2.31785 | 35623 ft | 451 kts | 348° |
| 2026-04-21 18:33 | 54.07714 | -2.33197 | 35376 ft | 451 kts | 339° |
| 2026-04-21 18:33 | 54.10633 | -2.35184 | 35124 ft | 452 kts | 338° |
| 2026-04-21 18:33 | 54.13557 | -2.37198 | 34876 ft | 453 kts | 338° |
| 2026-04-21 18:33 | 54.15491 | -2.38535 | 34705 ft | 454 kts | 338° |
| 2026-04-21 18:34 | 54.18426 | -2.40569 | 34457 ft | 456 kts | 338° |
| 2026-04-21 18:34 | 54.22315 | -2.43280 | 34126 ft | 456 kts | 337° |
| 2026-04-21 18:34 | 54.25250 | -2.45336 | 33876 ft | 457 kts | 337° |
| 2026-04-21 18:34 | 54.28199 | -2.47400 | 33627 ft | 457 kts | 337° |
| 2026-04-21 18:35 | 54.30186 | -2.48793 | 33457 ft | 457 kts | 337° |
| 2026-04-21 18:35 | 54.34078 | -2.51519 | 33125 ft | 457 kts | 338° |
| 2026-04-21 18:35 | 54.36034 | -2.52887 | 32958 ft | 458 kts | 338° |
| 2026-04-21 18:35 | 54.38957 | -2.54936 | 32692 ft | 447 kts | 337° |
| 2026-04-21 18:36 | 54.41780 | -2.56922 | 32448 ft | 433 kts | 337° |
| 2026-04-21 18:36 | 54.44537 | -2.58864 | 32193 ft | 423 kts | 337° |
| 2026-04-21 18:36 | 54.47223 | -2.60758 | 31946 ft | 413 kts | 337° |
| 2026-04-21 18:36 | 54.49872 | -2.62504 | 31690 ft | 404 kts | 345° |
| 2026-04-21 18:37 | 54.52627 | -2.63023 | 31438 ft | 395 kts | 5° |
| 2026-04-21 18:37 | 54.55265 | -2.61967 | 31187 ft | 389 kts | 24° |
| 2026-04-21 18:37 | 54.57501 | -2.59507 | 30936 ft | 387 kts | 44° |
| 2026-04-21 18:37 | 54.59338 | -2.56139 | 30695 ft | 386 kts | 49° |
| 2026-04-21 18:38 | 54.61097 | -2.52652 | 30445 ft | 385 kts | 49° |
| 2026-04-21 18:38 | 54.62988 | -2.49403 | 30195 ft | 383 kts | 40° |
| 2026-04-21 18:38 | 54.64933 | -2.46281 | 29943 ft | 382 kts | 47° |
| 2026-04-21 18:38 | 54.66875 | -2.43185 | 29694 ft | 380 kts | 31° |
| 2026-04-21 18:39 | 54.69326 | -2.41595 | 29443 ft | 377 kts | 6° |
| 2026-04-21 18:39 | 54.71924 | -2.41822 | 29191 ft | 375 kts | 346° |
| 2026-04-21 18:39 | 54.74348 | -2.43280 | 28947 ft | 374 kts | 333° |
| 2026-04-21 18:39 | 54.76518 | -2.45724 | 28699 ft | 372 kts | 318° |
| 2026-04-21 18:40 | 54.78201 | -2.49089 | 28446 ft | 369 kts | 300° |
| 2026-04-21 18:40 | 54.79292 | -2.53104 | 28195 ft | 369 kts | 292° |
| 2026-04-21 18:40 | 54.80250 | -2.57196 | 27944 ft | 364 kts | 291° |
| 2026-04-21 18:40 | 54.81180 | -2.61255 | 27692 ft | 361 kts | 291° |
| 2026-04-21 18:41 | 54.82096 | -2.65282 | 27436 ft | 358 kts | 291° |
| 2026-04-21 18:41 | 54.83005 | -2.69286 | 27192 ft | 355 kts | 291° |
| 2026-04-21 18:41 | 54.83899 | -2.73208 | 26944 ft | 354 kts | 291° |
| 2026-04-21 18:41 | 54.84807 | -2.77160 | 26696 ft | 352 kts | 291° |
| 2026-04-21 18:42 | 54.85838 | -2.81001 | 26444 ft | 350 kts | 299° |
| 2026-04-21 18:42 | 54.87154 | -2.84542 | 26194 ft | 349 kts | 307° |
| 2026-04-21 18:42 | 54.88728 | -2.87729 | 25938 ft | 348 kts | 315° |
| 2026-04-21 18:42 | 54.90532 | -2.90519 | 25505 ft | 347 kts | 322° |
| 2026-04-21 18:43 | 54.92536 | -2.92858 | 25003 ft | 348 kts | 330° |
| 2026-04-21 18:43 | 54.94707 | -2.94713 | 24514 ft | 348 kts | 338° |
| 2026-04-21 18:43 | 54.96896 | -2.96282 | 24254 ft | 341 kts | 337° |
| 2026-04-21 18:43 | 54.99067 | -2.97849 | 23906 ft | 336 kts | 337° |
| 2026-04-21 18:44 | 55.01221 | -2.99414 | 23511 ft | 334 kts | 337° |
| 2026-04-21 18:44 | 55.03353 | -3.00969 | 23130 ft | 332 kts | 337° |
| 2026-04-21 18:44 | 55.05477 | -3.02520 | 22730 ft | 330 kts | 337° |
| 2026-04-21 18:44 | 55.07586 | -3.04062 | 22353 ft | 328 kts | 337° |
| 2026-04-21 18:45 | 55.09685 | -3.05596 | 21949 ft | 326 kts | 337° |
| 2026-04-21 18:45 | 55.11823 | -3.07157 | 21038 ft | 341 kts | 337° |
| 2026-04-21 18:45 | 55.14035 | -3.08775 | 20116 ft | 359 kts | 337° |
| 2026-04-21 18:45 | 55.16454 | -3.10542 | 19590 ft | 391 kts | 337° |
| 2026-04-21 18:46 | 55.18985 | -3.12391 | 19015 ft | 393 kts | 337° |
| 2026-04-21 18:46 | 55.21463 | -3.14206 | 18827 ft | 380 kts | 337° |
| 2026-04-21 18:46 | 55.23858 | -3.15969 | 18681 ft | 367 kts | 337° |
| 2026-04-21 18:46 | 55.26171 | -3.17672 | 18554 ft | 354 kts | 337° |
| 2026-04-21 18:47 | 55.28421 | -3.19239 | 18425 ft | 343 kts | 343° |
| 2026-04-21 18:47 | 55.30717 | -3.20024 | 18286 ft | 332 kts | 355° |
| 2026-04-21 18:47 | 55.33006 | -3.19945 | 18006 ft | 327 kts | 5° |
| 2026-04-21 18:47 | 55.35237 | -3.19590 | 17648 ft | 325 kts | 5° |
| 2026-04-21 18:48 | 55.37482 | -3.19236 | 17285 ft | 324 kts | 5° |
| 2026-04-21 18:48 | 55.39721 | -3.18888 | 16925 ft | 322 kts | 5° |
| 2026-04-21 18:48 | 55.41948 | -3.18542 | 16579 ft | 320 kts | 5° |
| 2026-04-21 18:48 | 55.44165 | -3.18199 | 16233 ft | 319 kts | 5° |
| 2026-04-21 18:49 | 55.46367 | -3.17855 | 15892 ft | 317 kts | 5° |
| 2026-04-21 18:49 | 55.48558 | -3.17512 | 15568 ft | 316 kts | 5° |
| 2026-04-21 18:49 | 55.50003 | -3.17284 | 15360 ft | 314 kts | 5° |
| 2026-04-21 18:49 | 55.52965 | -3.16815 | 14346 ft | 329 kts | 5° |
| 2026-04-21 18:50 | 55.55271 | -3.16449 | 13413 ft | 344 kts | 5° |
| 2026-04-21 18:50 | 55.57707 | -3.16060 | 12373 ft | 359 kts | 5° |
| 2026-04-21 18:50 | 55.60243 | -3.15654 | 11253 ft | 373 kts | 5° |
| 2026-04-21 18:50 | 55.62868 | -3.15235 | 10119 ft | 384 kts | 5° |
| 2026-04-21 18:51 | 55.65535 | -3.14964 | 9484 ft | 379 kts | 356° |
| 2026-04-21 18:51 | 55.67976 | -3.16225 | 9323 ft | 354 kts | 329° |
| 2026-04-21 18:51 | 55.69678 | -3.19030 | 9156 ft | 322 kts | 301° |
| 2026-04-21 18:51 | 55.70320 | -3.22596 | 9030 ft | 294 kts | 270° |
| 2026-04-21 18:52 | 55.69928 | -3.25946 | 8793 ft | 275 kts | 250° |
| 2026-04-21 18:52 | 55.69451 | -3.29161 | 8272 ft | 268 kts | 264° |
| 2026-04-21 18:52 | 55.69383 | -3.32371 | 8135 ft | 255 kts | 271° |
| 2026-04-21 18:52 | 55.69434 | -3.35445 | 8009 ft | 244 kts | 272° |
| 2026-04-21 18:53 | 55.69482 | -3.38403 | 7843 ft | 236 kts | 271° |
| 2026-04-21 18:53 | 55.69497 | -3.41290 | 7564 ft | 233 kts | 270° |
| 2026-04-21 18:53 | 55.69478 | -3.44163 | 7257 ft | 232 kts | 269° |
| 2026-04-21 18:53 | 55.69433 | -3.47015 | 6943 ft | 231 kts | 268° |
| 2026-04-21 18:54 | 55.69373 | -3.49819 | 6635 ft | 230 kts | 268° |
| 2026-04-21 18:54 | 55.69303 | -3.52646 | 6337 ft | 229 kts | 267° |
| 2026-04-21 18:54 | 55.69229 | -3.55459 | 6029 ft | 228 kts | 268° |
| 2026-04-21 18:54 | 55.69302 | -3.58252 | 5720 ft | 227 kts | 278° |
| 2026-04-21 18:55 | 55.69638 | -3.60973 | 5410 ft | 226 kts | 288° |
| 2026-04-21 18:55 | 55.70224 | -3.63547 | 5112 ft | 225 kts | 297° |
| 2026-04-21 18:55 | 55.71034 | -3.65907 | 4816 ft | 223 kts | 306° |
| 2026-04-21 18:55 | 55.72038 | -3.67991 | 4519 ft | 222 kts | 315° |
| 2026-04-21 18:56 | 55.73182 | -3.69740 | 4362 ft | 216 kts | 320° |
| 2026-04-21 18:56 | 55.74329 | -3.71404 | 4242 ft | 210 kts | 320° |
| 2026-04-21 18:56 | 55.75431 | -3.73011 | 4139 ft | 199 kts | 319° |
| 2026-04-21 18:56 | 55.76412 | -3.74630 | 4002 ft | 187 kts | 315° |
| 2026-04-21 18:57 | 55.77304 | -3.76220 | 3883 ft | 177 kts | 314° |
| 2026-04-21 18:57 | 55.78148 | -3.77748 | 3752 ft | 169 kts | 314° |
| 2026-04-21 18:57 | 55.79085 | -3.78884 | 3628 ft | 161 kts | 343° |
| 2026-04-21 18:57 | 55.80164 | -3.78917 | 3549 ft | 155 kts | 16° |
| 2026-04-21 18:58 | 55.81059 | -3.77910 | 3477 ft | 154 kts | 50° |
| 2026-04-21 18:58 | 55.81627 | -3.76337 | 3483 ft | 154 kts | 58° |
| 2026-04-21 18:58 | 55.82186 | -3.74717 | 3478 ft | 153 kts | 58° |
| 2026-04-21 18:58 | 55.82744 | -3.73099 | 3478 ft | 154 kts | 58° |
| 2026-04-21 18:59 | 55.83301 | -3.71481 | 3476 ft | 154 kts | 58° |
| 2026-04-21 18:59 | 55.83859 | -3.69859 | 3477 ft | 153 kts | 58° |
| 2026-04-21 18:59 | 55.84415 | -3.68241 | 3476 ft | 153 kts | 58° |
| 2026-04-21 18:59 | 55.84971 | -3.66622 | 3473 ft | 153 kts | 58° |
| 2026-04-21 19:00 | 55.85514 | -3.65041 | 3416 ft | 150 kts | 58° |
| 2026-04-21 19:00 | 55.86059 | -3.63454 | 3251 ft | 147 kts | 58° |
| 2026-04-21 19:00 | 55.86583 | -3.61926 | 3076 ft | 146 kts | 58° |
| 2026-04-21 19:00 | 55.87111 | -3.60385 | 2885 ft | 145 kts | 58° |
| 2026-04-21 19:01 | 55.87636 | -3.58852 | 2696 ft | 145 kts | 58° |
| 2026-04-21 19:01 | 55.88160 | -3.57322 | 2505 ft | 144 kts | 58° |
| 2026-04-21 19:01 | 55.88681 | -3.55798 | 2314 ft | 144 kts | 58° |
| 2026-04-21 19:01 | 55.89201 | -3.54276 | 2128 ft | 144 kts | 58° |
| 2026-04-21 19:02 | 55.89720 | -3.52759 | 1933 ft | 143 kts | 58° |
| 2026-04-21 19:02 | 55.90236 | -3.51247 | 1739 ft | 143 kts | 58° |
| 2026-04-21 19:02 | 55.90743 | -3.49759 | 1557 ft | 142 kts | 58° |
| 2026-04-21 19:02 | 55.91257 | -3.48251 | 1367 ft | 142 kts | 58° |
| 2026-04-21 19:03 | 55.91768 | -3.46752 | 1175 ft | 141 kts | 58° |
| 2026-04-21 19:03 | 55.92278 | -3.45256 | 993 ft | 141 kts | 58° |
| 2026-04-21 19:03 | 55.92785 | -3.43765 | 807 ft | 140 kts | 58° |
| 2026-04-21 19:03 | 55.93291 | -3.42277 | 623 ft | 139 kts | 58° |
| 2026-04-21 19:04 | 55.93784 | -3.40828 | 432 ft | 136 kts | 58° |
| 2026-04-21 19:04 | 55.94272 | -3.39389 | 258 ft | 135 kts | 59° |
| 2026-04-21 19:04 | 55.94748 | -3.37992 | 119 ft | 130 kts | 58° |
| 2026-04-21 19:04 | 55.95123 | -3.36888 | 114 ft | 64 kts | 58° |
| 2026-04-21 19:05 | 55.95238 | -3.36543 | 112 ft | 15 kts | 59° |
| 2026-04-21 19:05 | 55.95234 | -3.36396 | 113 ft | 12 kts | 146° |
| 2026-04-21 19:05 | 55.95182 | -3.36339 | 113 ft | 1 kts | 149° |
| 2026-04-21 19:05 | 55.95182 | -3.36340 | 113 ft | 0 kts | 149° |
| 2026-04-21 19:08 | 55.95182 | -3.36339 | 113 ft | 1 kts | 149° |
| 2026-04-21 19:08 | 55.95125 | -3.36325 | 115 ft | 9 kts | 213° |
| 2026-04-21 19:08 | 55.95078 | -3.36397 | 116 ft | 8 kts | 195° |
| 2026-04-21 19:08 | 55.95035 | -3.36365 | 112 ft | 6 kts | 145° |
| 2026-04-21 19:09 | 55.95002 | -3.36326 | 114 ft | 5 kts | 146° |
| 2026-04-21 19:09 | 55.94976 | -3.36298 | 114 ft | 4 kts | 149° |
| 2026-04-21 19:09 | 55.94957 | -3.36278 | 114 ft | 0 kts | 149° |